createdAt,value
2019-01-04T00:00:56.062Z,2.90
2019-01-04T00:03:38.534Z,2.90
2019-01-04T00:06:20.835Z,2.80
2019-01-04T00:09:02.684Z,2.80
2019-01-04T00:11:44.844Z,2.70
2019-01-04T00:14:26.825Z,2.80
2019-01-04T00:17:08.925Z,2.70
2019-01-04T00:19:51.397Z,2.70
2019-01-04T00:22:33.810Z,2.70
2019-01-04T00:25:16.275Z,2.70
2019-01-04T00:27:58.163Z,2.70
2019-01-04T00:30:40.496Z,2.70
2019-01-04T00:33:22.934Z,2.70
2019-01-04T00:36:05.232Z,2.80
2019-01-04T00:38:47.225Z,2.80
2019-01-04T00:41:29.236Z,2.80
2019-01-04T00:44:11.358Z,2.80
2019-01-04T00:46:53.275Z,2.80
2019-01-04T00:49:35.183Z,2.80
2019-01-04T00:52:17.764Z,2.90
2019-01-04T00:54:59.633Z,2.90
2019-01-04T00:57:41.609Z,2.90
2019-01-04T01:00:23.351Z,2.90
2019-01-04T01:03:05.479Z,2.90
2019-01-04T01:05:48.083Z,2.90
2019-01-04T01:08:30.003Z,2.90
2019-01-04T01:11:12.290Z,2.90
2019-01-04T01:13:54.576Z,2.80
2019-01-04T01:16:36.859Z,2.80
2019-01-04T01:22:56.914Z,2.80
2019-01-04T01:26:05.525Z,2.80
2019-01-04T01:29:14.183Z,2.80
2019-01-04T01:32:23.065Z,2.70
2019-01-04T01:35:31.874Z,2.70
2019-01-04T01:38:40.610Z,2.60
2019-01-04T01:41:49.268Z,2.60
2019-01-04T01:44:58.020Z,2.60
2019-01-04T01:47:52.115Z,2.60
2019-01-04T01:50:34.151Z,2.50
2019-01-04T01:53:16.432Z,2.50
2019-01-04T01:55:58.211Z,2.40
2019-01-04T01:58:40.257Z,2.40
2019-01-04T02:01:22.240Z,2.40
2019-01-04T02:04:04.578Z,2.40
2019-01-04T02:06:46.709Z,2.40
2019-01-04T02:09:27.365Z,2.40
2019-01-04T02:18:26.163Z,2.50
2019-01-04T02:21:08.799Z,2.50
2019-01-04T02:23:50.940Z,2.50
2019-01-04T02:26:31.653Z,2.50
2019-01-04T02:29:21.463Z,2.50
2019-01-04T02:32:11.331Z,2.50
2019-01-04T02:35:01.037Z,2.50
2019-01-04T02:37:50.740Z,2.50
2019-01-04T02:40:59.883Z,2.60
2019-01-04T02:44:08.996Z,2.70
2019-01-04T02:50:27.062Z,2.80
2019-01-04T02:53:36.614Z,2.80
2019-01-04T02:59:35.637Z,2.80
2019-01-04T03:09:02.020Z,2.80
2019-01-04T03:21:42.135Z,2.70
2019-01-04T03:24:43.762Z,2.70
2019-01-04T03:27:26.010Z,2.70
2019-01-04T03:30:08.013Z,2.70
2019-01-04T03:32:49.760Z,2.70
2019-01-04T03:35:32.165Z,2.70
2019-01-04T03:38:14.584Z,2.70
2019-01-04T03:40:57.319Z,2.80
2019-01-04T03:43:39.330Z,2.80
2019-01-04T03:46:21.094Z,2.80
2019-01-04T03:49:02.955Z,2.80
2019-01-04T03:51:45.095Z,2.90
2019-01-04T03:54:27.436Z,2.90
2019-01-04T03:57:09.500Z,2.90
2019-01-04T03:59:51.759Z,3.00
2019-01-04T04:02:34.565Z,3.00
2019-01-04T04:05:16.785Z,3.00
2019-01-04T04:07:59.190Z,2.90
2019-01-04T04:10:41.817Z,2.80
2019-01-04T04:13:23.770Z,2.80
2019-01-04T04:16:05.549Z,2.80
2019-01-04T04:18:47.360Z,2.70
2019-01-04T04:21:29.265Z,2.70
2019-01-04T04:24:11.895Z,2.70
2019-01-04T04:26:54.087Z,2.70
2019-01-04T04:29:36.070Z,2.70
2019-01-04T04:32:18.747Z,2.80
2019-01-04T04:35:00.665Z,2.80
2019-01-04T04:37:43.389Z,2.80
2019-01-04T04:40:25.636Z,2.80
2019-01-04T04:43:07.913Z,2.80
2019-01-04T04:45:50.330Z,2.80
2019-01-04T04:48:32.319Z,2.80
2019-01-04T04:51:14.324Z,2.70
2019-01-04T04:53:56.235Z,2.70
2019-01-04T04:56:38.465Z,2.70
2019-01-04T04:59:20.346Z,2.70
2019-01-04T05:02:02.582Z,2.70
2019-01-04T05:04:44.534Z,2.70
2019-01-04T05:07:26.794Z,2.70
2019-01-04T05:10:08.904Z,2.70
2019-01-04T05:12:51.139Z,2.70
2019-01-04T05:15:33.670Z,2.70
2019-01-04T05:18:16.220Z,2.60
2019-01-04T05:20:58.490Z,2.50
2019-01-04T05:23:41.154Z,2.50
2019-01-04T05:26:23.586Z,2.40
2019-01-04T05:29:05.537Z,2.40
2019-01-04T05:31:47.281Z,2.40
2019-01-04T05:34:29.411Z,2.40
2019-01-04T05:37:11.418Z,2.40
2019-01-04T05:39:53.180Z,2.50
2019-01-04T05:42:35.295Z,2.60
2019-01-04T05:45:17.323Z,2.60
2019-01-04T05:47:59.601Z,2.60
2019-01-04T05:50:42.003Z,2.60
2019-01-04T05:53:24.749Z,2.70
2019-01-04T05:56:07.121Z,2.70
2019-01-04T05:58:49.383Z,2.70
2019-01-04T06:01:31.957Z,2.60
2019-01-04T06:04:14.141Z,2.70
2019-01-04T06:06:56.418Z,2.60
2019-01-04T06:09:39.022Z,2.70
2019-01-04T06:12:21.329Z,2.60
2019-01-04T06:15:03.674Z,2.60
2019-01-04T06:17:45.699Z,2.60
2019-01-04T06:20:28.173Z,2.60
2019-01-04T06:23:10.535Z,2.50
2019-01-04T06:25:52.293Z,2.50
2019-01-04T06:28:34.617Z,2.60
2019-01-04T06:31:16.515Z,2.60
2019-01-04T06:33:58.958Z,2.70
2019-01-04T06:36:40.705Z,2.60
2019-01-04T06:39:23.363Z,2.60
2019-01-04T06:42:05.412Z,2.60
2019-01-04T06:44:47.456Z,2.60
2019-01-04T06:47:29.593Z,2.60
2019-01-04T06:50:11.783Z,2.50
2019-01-04T06:52:54.194Z,2.50
2019-01-04T06:55:36.919Z,2.50
2019-01-04T06:58:19.268Z,2.50
2019-01-04T07:01:01.613Z,2.50
2019-01-04T07:03:43.825Z,2.50
2019-01-04T07:06:25.985Z,2.50
2019-01-04T07:09:08.068Z,2.50
2019-01-04T07:11:50.633Z,2.50
2019-01-04T07:14:33.089Z,2.50
2019-01-04T07:17:14.829Z,2.50
2019-01-04T07:19:57.495Z,2.50
2019-01-04T07:22:39.580Z,2.50
2019-01-04T07:25:22.247Z,2.50
2019-01-04T07:28:04.760Z,2.50
2019-01-04T07:30:47.263Z,2.60
2019-01-04T07:33:29.807Z,2.50
2019-01-04T07:36:11.743Z,2.60
2019-01-04T07:38:53.603Z,2.60
2019-01-04T07:41:36.309Z,2.70
2019-01-04T07:44:18.369Z,2.70
2019-01-04T07:47:00.161Z,2.70
2019-01-04T07:49:41.944Z,2.70
2019-01-04T07:52:23.880Z,2.70
2019-01-04T07:55:05.817Z,2.80
2019-01-04T07:57:51.368Z,2.70
2019-01-04T08:00:36.424Z,2.60
2019-01-04T08:03:20.582Z,2.60
2019-01-04T08:06:02.544Z,2.50
2019-01-04T08:08:44.478Z,2.40
2019-01-04T08:11:26.653Z,2.40
2019-01-04T08:14:09.443Z,2.40
2019-01-04T08:16:51.539Z,2.40
2019-01-04T08:19:34.450Z,2.30
2019-01-04T08:22:16.593Z,2.30
2019-01-04T08:24:58.566Z,2.30
2019-01-04T08:27:40.270Z,2.30
2019-01-04T08:30:22.850Z,2.30
2019-01-04T08:33:05.013Z,2.40
2019-01-04T08:35:47.380Z,2.40
2019-01-04T08:38:29.340Z,2.50
2019-01-04T08:41:12.350Z,2.60
2019-01-04T08:43:54.697Z,2.60
2019-01-04T08:46:37.009Z,2.60
2019-01-04T08:49:19.014Z,2.70
2019-01-04T08:52:01.157Z,2.70
2019-01-04T08:54:43.318Z,2.70
2019-01-04T08:57:25.347Z,2.70
2019-01-04T09:00:08.125Z,2.70
2019-01-04T09:02:50.607Z,2.80
2019-01-04T09:05:33.017Z,2.80
2019-01-04T09:08:15.331Z,2.80
2019-01-04T09:10:57.378Z,2.80
2019-01-04T09:13:40.131Z,2.80
2019-01-04T09:16:22.744Z,2.80
2019-01-04T09:19:04.846Z,2.90
2019-01-04T09:21:47.004Z,2.90
2019-01-04T09:24:28.920Z,2.90
2019-01-04T09:27:11.407Z,2.90
2019-01-04T09:29:53.543Z,3.00
2019-01-04T09:32:35.541Z,2.90
2019-01-04T09:35:18.003Z,2.90
2019-01-04T09:37:59.810Z,3.00
2019-01-04T09:40:41.864Z,3.00
2019-01-04T09:43:24.023Z,3.10
2019-01-04T09:46:06.138Z,3.10
2019-01-04T09:48:48.647Z,3.10
2019-01-04T09:51:30.598Z,3.00
2019-01-04T09:54:13.217Z,3.10
2019-01-04T09:56:55.344Z,3.10
2019-01-04T09:59:38.070Z,3.20
2019-01-04T10:02:20.453Z,3.30
2019-01-04T10:05:02.422Z,3.30
2019-01-04T10:07:44.344Z,3.20
2019-01-04T10:10:26.053Z,3.10
2019-01-04T10:13:07.963Z,3.20
2019-01-04T10:15:50.522Z,3.30
2019-01-04T10:18:32.842Z,3.30
2019-01-04T10:21:15.069Z,3.30
2019-01-04T10:23:57.705Z,3.40
2019-01-04T10:26:40.555Z,3.40
2019-01-04T10:29:23.416Z,3.40
2019-01-04T10:32:05.584Z,3.40
2019-01-04T10:34:47.821Z,3.40
2019-01-04T10:37:30.677Z,3.40
2019-01-04T10:40:12.635Z,3.40
2019-01-04T10:42:55.364Z,3.30
2019-01-04T10:45:37.375Z,3.40
2019-01-04T10:48:19.463Z,3.40
2019-01-04T10:51:01.562Z,3.50
2019-01-04T10:53:44.215Z,3.50
2019-01-04T10:56:26.672Z,3.50
2019-01-04T10:59:08.765Z,3.40
2019-01-04T11:01:51.067Z,3.40
2019-01-04T11:04:33.518Z,3.40
2019-01-04T11:07:15.906Z,3.50
2019-01-04T11:09:58.029Z,3.50
2019-01-04T11:12:39.994Z,3.50
2019-01-04T11:15:22.257Z,3.60
2019-01-04T11:18:09.868Z,3.50
2019-01-04T11:20:49.715Z,3.50
2019-01-04T11:23:32.243Z,3.50
2019-01-04T11:26:14.138Z,3.60
2019-01-04T11:28:55.936Z,3.50
2019-01-04T11:31:38.505Z,3.40
2019-01-04T11:34:20.995Z,3.40
2019-01-04T11:41:03.296Z,3.50
2019-01-04T11:44:31.395Z,3.50
2019-01-04T11:51:12.730Z,3.50
2019-01-04T12:00:31.545Z,3.60
2019-01-04T12:06:49.496Z,3.60
2019-01-04T12:13:28.247Z,3.60
2019-01-04T12:16:17.856Z,3.60
2019-01-04T12:19:26.887Z,3.60
2019-01-04T12:25:44.537Z,3.60
2019-01-04T12:28:26.296Z,3.70
2019-01-04T12:31:09.006Z,3.70
2019-01-04T12:33:51.027Z,3.70
2019-01-04T12:36:33.408Z,3.70
2019-01-04T12:39:16.413Z,3.70
2019-01-04T12:41:58.349Z,3.70
2019-01-04T12:44:41.177Z,3.70
2019-01-04T12:47:23.534Z,3.70
2019-01-04T12:50:05.425Z,3.60
2019-01-04T12:52:47.481Z,3.60
2019-01-04T12:55:29.424Z,3.60
2019-01-04T12:58:11.993Z,3.70
2019-01-04T13:00:54.373Z,3.70
2019-01-04T13:03:36.509Z,3.70
2019-01-04T13:06:18.721Z,3.80
2019-01-04T13:09:01.303Z,3.80
2019-01-04T13:11:43.466Z,3.70
2019-01-04T13:14:25.821Z,3.70
2019-01-04T13:17:08.165Z,3.70
2019-01-04T13:19:50.448Z,3.70
2019-01-04T13:22:32.398Z,3.70
2019-01-04T13:25:15.025Z,3.70
2019-01-04T13:27:57.086Z,3.80
2019-01-04T13:30:39.749Z,3.80
2019-01-04T13:33:22.853Z,3.70
2019-01-04T13:36:04.604Z,3.70
2019-01-04T13:38:46.856Z,3.70
2019-01-04T13:41:28.861Z,3.70
2019-01-04T13:44:11.446Z,3.60
2019-01-04T13:46:53.799Z,3.60
2019-01-04T13:49:35.993Z,3.70
2019-01-04T13:52:17.648Z,3.60
2019-01-04T13:54:59.749Z,3.60
2019-01-04T13:57:41.925Z,3.60
2019-01-04T14:00:23.969Z,3.70
2019-01-04T14:03:05.989Z,3.60
2019-01-04T14:05:48.905Z,3.60
2019-01-04T14:08:30.784Z,3.60
2019-01-04T14:11:13.376Z,3.60
2019-01-04T14:13:55.905Z,3.60
2019-01-04T14:16:38.296Z,3.60
2019-01-04T14:19:20.517Z,3.60
2019-01-04T14:22:02.313Z,3.60
2019-01-04T14:24:44.614Z,3.60
2019-01-04T14:27:26.779Z,3.60
2019-01-04T14:30:08.836Z,3.60
2019-01-04T14:32:51.570Z,3.60
2019-01-04T14:35:34.387Z,3.60
2019-01-04T14:38:17.139Z,3.60
2019-01-04T14:40:59.446Z,3.60
2019-01-04T14:43:42.408Z,3.60
2019-01-04T14:46:25.311Z,3.60
2019-01-04T14:49:08.726Z,3.60
2019-01-04T14:51:51.168Z,3.60
2019-01-04T14:54:33.671Z,3.60
2019-01-04T14:57:16.033Z,3.60
2019-01-04T14:59:58.461Z,3.60
2019-01-04T15:02:40.843Z,3.70
2019-01-04T15:05:22.915Z,3.60
2019-01-04T15:08:06.525Z,3.60
2019-01-04T15:10:48.564Z,3.60
2019-01-04T15:13:30.823Z,3.60
2019-01-04T15:16:12.923Z,3.60
2019-01-04T15:18:54.875Z,3.50
2019-01-04T15:21:36.684Z,3.50
2019-01-04T15:24:19.187Z,3.50
2019-01-04T15:27:01.473Z,3.50
2019-01-04T15:29:43.810Z,3.40
2019-01-04T15:32:25.678Z,3.40
2019-01-04T15:35:08.302Z,3.30
2019-01-04T15:37:50.778Z,3.30
2019-01-04T15:40:33.555Z,3.30
2019-01-04T15:43:15.394Z,3.30
2019-01-04T15:45:57.633Z,3.30
2019-01-04T15:48:39.740Z,3.20
2019-01-04T15:51:22.132Z,3.20
2019-01-04T15:54:03.914Z,3.20
2019-01-04T15:56:46.533Z,3.20
2019-01-04T15:59:29.085Z,3.10
2019-01-04T16:02:11.648Z,3.10
2019-01-04T16:04:53.473Z,3.10
2019-01-04T16:07:35.803Z,3.10
2019-01-04T16:10:18.019Z,3.10
2019-01-04T16:13:00.260Z,3.10
2019-01-04T16:15:42.367Z,3.10
2019-01-04T16:18:24.277Z,3.10
2019-01-04T16:21:06.300Z,3.10
2019-01-04T16:23:48.661Z,3.10
2019-01-04T16:26:31.368Z,3.10
2019-01-04T16:29:13.761Z,3.10
2019-01-04T16:31:55.648Z,3.20
2019-01-04T16:34:37.864Z,3.20
2019-01-04T16:37:19.898Z,3.20
2019-01-04T16:40:02.178Z,3.20
2019-01-04T16:42:44.482Z,3.20
2019-01-04T16:45:26.739Z,3.20
2019-01-04T16:48:09.257Z,3.20
2019-01-04T16:50:51.681Z,3.20
2019-01-04T16:53:33.615Z,3.20
2019-01-04T16:56:17.059Z,3.20
2019-01-04T16:58:59.187Z,3.20
2019-01-04T17:01:41.948Z,3.20
2019-01-04T17:04:24.153Z,3.20
2019-01-04T17:07:06.240Z,3.20
2019-01-04T17:09:49.261Z,3.30
2019-01-04T17:12:31.709Z,3.30
2019-01-04T17:15:14.527Z,3.20
2019-01-04T17:17:56.401Z,3.30
2019-01-04T17:20:38.707Z,3.30
2019-01-04T17:23:21.439Z,3.20
2019-01-04T17:26:04.046Z,3.30
2019-01-04T17:28:46.449Z,3.30
2019-01-04T17:31:29.049Z,3.30
2019-01-04T17:34:11.021Z,3.30
2019-01-04T17:36:53.757Z,3.30
2019-01-04T17:39:36.569Z,3.40
2019-01-04T17:42:19.052Z,3.30
2019-01-04T17:45:01.294Z,3.30
2019-01-04T17:47:43.391Z,3.30
2019-01-04T17:50:25.957Z,3.40
2019-01-04T17:53:08.334Z,3.40
2019-01-04T17:55:50.741Z,3.40
2019-01-04T17:58:33.128Z,3.50
2019-01-04T18:01:15.225Z,3.40
2019-01-04T18:03:57.719Z,3.40
2019-01-04T18:06:39.757Z,3.30
2019-01-04T18:09:21.951Z,3.30
2019-01-04T18:12:04.403Z,3.30
2019-01-04T18:14:47.214Z,3.20
2019-01-04T18:17:29.546Z,3.20
2019-01-04T18:20:13.984Z,3.20
2019-01-04T18:22:55.411Z,3.20
2019-01-04T18:25:37.649Z,3.10
2019-01-04T18:28:19.779Z,3.10
2019-01-04T18:31:02.257Z,3.10
2019-01-04T18:33:44.289Z,3.10
2019-01-04T18:36:26.407Z,3.10
2019-01-04T18:39:08.553Z,3.10
2019-01-04T18:41:50.347Z,3.10
2019-01-04T18:44:32.893Z,3.10
2019-01-04T18:47:15.557Z,3.20
2019-01-04T18:49:57.806Z,3.10
2019-01-04T18:52:40.368Z,3.20
2019-01-04T18:55:22.493Z,3.10
2019-01-04T18:58:04.913Z,3.10
2019-01-04T19:00:46.799Z,3.20
2019-01-04T19:03:29.316Z,3.10
2019-01-04T19:06:11.508Z,3.10
2019-01-04T19:08:53.578Z,3.10
2019-01-04T19:11:35.804Z,3.10
2019-01-04T19:14:17.569Z,3.20
2019-01-04T19:16:59.745Z,3.10
2019-01-04T19:19:41.531Z,3.10
2019-01-04T19:22:23.532Z,3.10
2019-01-04T19:25:05.296Z,3.10
2019-01-04T19:27:47.408Z,3.20
2019-01-04T19:30:29.906Z,3.20
2019-01-04T19:33:12.296Z,3.10
2019-01-04T19:35:54.567Z,3.10
2019-01-04T19:38:37.105Z,3.10
2019-01-04T19:41:19.143Z,3.10
2019-01-04T19:44:01.322Z,3.10
2019-01-04T19:46:44.020Z,3.10
2019-01-04T19:49:26.416Z,3.10
2019-01-04T19:52:08.912Z,3.10
2019-01-04T19:54:50.833Z,3.10
2019-01-04T19:57:33.738Z,3.10
2019-01-04T20:00:16.257Z,3.10
2019-01-04T20:02:58.107Z,3.10
2019-01-04T20:09:15.523Z,3.00
2019-01-04T20:12:17.463Z,3.00
2019-01-04T20:18:21.412Z,3.00
2019-01-04T20:21:47.703Z,3.00
2019-01-04T20:25:09.062Z,3.00
2019-01-04T20:28:09.922Z,3.00
2019-01-04T20:31:12.374Z,3.00
2019-01-04T20:34:15.022Z,3.00
2019-01-04T20:37:36.786Z,3.00
2019-01-04T20:43:42.148Z,3.00
2019-01-04T20:49:29.042Z,3.00
2019-01-04T20:52:31.041Z,3.00
2019-01-04T20:55:32.333Z,3.00
2019-01-04T20:58:58.233Z,3.00
2019-01-04T21:05:18.109Z,3.00
2019-01-04T21:08:21.851Z,3.00
2019-01-04T21:11:20.419Z,3.00
2019-01-04T21:14:42.527Z,3.00
2019-01-04T21:20:52.340Z,2.90
2019-01-04T21:23:53.299Z,2.90
2019-01-04T21:26:54.250Z,2.90
2019-01-04T21:29:55.344Z,2.80
2019-01-04T21:32:59.577Z,2.80
2019-01-04T21:36:20.467Z,2.80
2019-01-04T21:39:22.807Z,2.80
2019-01-04T21:42:23.748Z,2.70
2019-01-04T21:45:32.276Z,2.70
2019-01-04T21:49:00.211Z,2.70
2019-01-04T21:52:08.689Z,2.70
2019-01-04T21:55:17.193Z,2.70
2019-01-04T21:58:22.015Z,2.70
2019-01-04T22:01:26.096Z,2.70
2019-01-04T22:04:46.349Z,2.70
2019-01-04T22:07:47.070Z,2.70
2019-01-04T22:11:07.765Z,2.70
2019-01-04T22:14:31.437Z,2.70
2019-01-04T22:17:52.021Z,2.70
2019-01-04T22:20:58.761Z,2.70
2019-01-04T22:24:25.533Z,2.80
2019-01-04T22:27:46.097Z,2.70
2019-01-04T22:30:46.847Z,2.80
2019-01-04T22:33:50.656Z,2.70
2019-01-04T22:37:14.176Z,2.70
2019-01-04T22:40:37.121Z,2.70
2019-01-04T22:43:57.713Z,2.70
2019-01-04T22:47:17.774Z,2.70
2019-01-04T22:50:40.857Z,2.70
2019-01-04T22:53:41.877Z,2.70
2019-01-04T22:56:43.075Z,2.70
2019-01-04T22:59:43.728Z,2.70
2019-01-04T23:02:44.937Z,2.70
2019-01-04T23:05:46.187Z,2.70
2019-01-04T23:09:06.445Z,2.70
2019-01-04T23:12:07.706Z,2.70
2019-01-04T23:15:28.327Z,2.60
2019-01-04T23:18:52.400Z,2.60
2019-01-04T23:22:13.516Z,2.60
2019-01-04T23:25:17.593Z,2.60
2019-01-04T23:31:42.781Z,2.60
2019-01-04T23:34:44.268Z,2.60
2019-01-04T23:37:45.447Z,2.60
2019-01-04T23:40:52.530Z,2.60
2019-01-04T23:44:08.585Z,2.50
2019-01-04T23:47:32.477Z,2.60
2019-01-04T23:50:53.697Z,2.60
2019-01-04T23:56:59.115Z,2.50
